createdAt,value
2018-05-25T00:01:50.129Z,11.40
2018-05-25T00:04:18.946Z,11.43
2018-05-25T00:06:47.833Z,10.27
2018-05-25T00:09:16.660Z,12.40
2018-05-25T00:11:45.448Z,10.37
2018-05-25T00:14:14.280Z,14.57
2018-05-25T00:16:43.112Z,11.80
2018-05-25T00:19:11.989Z,10.20
2018-05-25T00:21:41.564Z,11.93
2018-05-25T00:24:10.441Z,11.47
2018-05-25T00:26:40.020Z,12.50
2018-05-25T00:29:08.820Z,12.00
2018-05-25T00:31:38.444Z,12.10
2018-05-25T00:34:07.225Z,12.07
2018-05-25T00:36:36.054Z,11.27
2018-05-25T00:39:05.656Z,10.87
2018-05-25T00:41:34.501Z,11.10
2018-05-25T00:44:03.315Z,9.97
2018-05-25T00:46:32.111Z,13.40
2018-05-25T00:49:00.981Z,12.30
2018-05-25T00:51:29.799Z,10.53
2018-05-25T00:53:59.705Z,12.07
2018-05-25T00:56:29.313Z,12.40
2018-05-25T00:58:59.617Z,11.77
2018-05-25T01:01:28.540Z,14.17
2018-05-25T01:03:57.361Z,11.77
2018-05-25T01:06:26.185Z,11.23
2018-05-25T01:08:55.746Z,12.80
2018-05-25T01:11:24.544Z,11.77
2018-05-25T01:13:53.433Z,11.40
2018-05-25T01:16:22.978Z,12.43
2018-05-25T01:18:51.793Z,11.40
2018-05-25T01:21:20.722Z,12.73
2018-05-25T01:23:49.585Z,12.27
2018-05-25T01:26:19.299Z,14.20
2018-05-25T01:28:48.892Z,13.77
2018-05-25T01:31:19.232Z,11.00
2018-05-25T01:33:48.804Z,10.70
2018-05-25T01:36:17.711Z,14.53
2018-05-25T01:38:46.505Z,13.93
2018-05-25T01:41:15.331Z,12.67
2018-05-25T01:43:44.657Z,11.40
2018-05-25T01:46:13.480Z,12.20
2018-05-25T01:48:42.306Z,12.63
2018-05-25T01:51:11.139Z,13.80
2018-05-25T01:53:40.466Z,12.13
2018-05-25T01:56:09.373Z,12.00
2018-05-25T01:58:38.954Z,15.77
2018-05-25T02:01:07.785Z,12.00
2018-05-25T02:03:36.578Z,13.37
2018-05-25T02:06:05.525Z,15.20
2018-05-25T02:08:35.125Z,12.40
2018-05-25T02:11:04.841Z,11.30
2018-05-25T02:13:33.639Z,12.43
2018-05-25T02:16:02.462Z,15.40
2018-05-25T02:18:31.343Z,12.90
2018-05-25T02:21:00.128Z,12.13
2018-05-25T02:23:30.289Z,12.10
2018-05-25T02:25:59.079Z,13.17
2018-05-25T02:28:27.893Z,13.70
2018-05-25T02:30:56.708Z,16.70
2018-05-25T02:33:25.985Z,12.53
2018-05-25T02:35:54.800Z,13.60
2018-05-25T02:38:23.623Z,13.03
2018-05-25T02:40:53.243Z,14.10
2018-05-25T02:43:22.941Z,14.37
2018-05-25T02:45:51.775Z,13.77
2018-05-25T02:48:21.434Z,11.70
2018-05-25T02:50:50.249Z,12.03
2018-05-25T02:53:20.582Z,13.33
2018-05-25T02:55:49.409Z,13.47
2018-05-25T02:58:19.731Z,13.40
2018-05-25T03:00:48.663Z,12.93
2018-05-25T03:03:17.731Z,12.90
2018-05-25T03:05:46.518Z,13.13
2018-05-25T03:08:15.335Z,15.17
2018-05-25T03:10:44.143Z,12.53
2018-05-25T03:13:12.963Z,14.80
2018-05-25T03:15:41.769Z,13.23
2018-05-25T03:18:10.572Z,16.40
2018-05-25T03:20:40.900Z,16.00
2018-05-25T03:23:09.719Z,13.60
2018-05-25T03:25:39.341Z,14.33
2018-05-25T03:28:08.900Z,15.10
2018-05-25T03:30:37.838Z,13.47
2018-05-25T03:33:07.399Z,13.77
2018-05-25T03:35:36.254Z,13.37
2018-05-25T03:38:05.120Z,13.70
2018-05-25T03:40:34.708Z,14.40
2018-05-25T03:43:03.623Z,13.17
2018-05-25T03:45:32.424Z,13.40
2018-05-25T03:48:01.287Z,13.67
2018-05-25T03:50:30.126Z,13.30
2018-05-25T03:52:59.704Z,14.00
2018-05-25T03:55:28.532Z,14.80
2018-05-25T03:57:57.346Z,15.30
2018-05-25T04:00:44.260Z,13.97
2018-05-25T04:03:14.546Z,13.67
2018-05-25T04:05:43.252Z,13.53
2018-05-25T04:08:12.161Z,16.17
2018-05-25T04:10:41.774Z,15.13
2018-05-25T04:13:11.409Z,14.57
2018-05-25T04:15:40.197Z,13.13
2018-05-25T04:18:09.104Z,16.97
2018-05-25T04:20:37.961Z,17.17
2018-05-25T04:23:06.780Z,13.93
2018-05-25T04:25:35.599Z,11.87
2018-05-25T04:28:04.388Z,12.97
2018-05-25T04:30:33.305Z,14.80
2018-05-25T04:33:02.106Z,14.90
2018-05-25T04:35:30.941Z,14.03
2018-05-25T04:38:00.549Z,13.83
2018-05-25T04:40:30.115Z,11.83
2018-05-25T04:42:58.948Z,13.17
2018-05-25T04:45:27.782Z,14.37
2018-05-25T04:47:56.588Z,15.70
2018-05-25T04:50:25.400Z,14.90
2018-05-25T04:52:54.219Z,14.50
2018-05-25T04:55:23.061Z,15.43
2018-05-25T04:57:51.968Z,13.90
2018-05-25T05:00:21.548Z,13.50
2018-05-25T05:02:50.377Z,18.07
2018-05-25T05:05:20.088Z,12.60
2018-05-25T05:07:49.645Z,15.80
2018-05-25T05:10:18.440Z,15.47
2018-05-25T05:12:47.281Z,14.47
2018-05-25T05:15:16.094Z,15.93
2018-05-25T05:17:44.916Z,14.10
2018-05-25T05:20:13.744Z,12.27
2018-05-25T05:22:42.541Z,14.20
2018-05-25T05:25:11.375Z,14.00
2018-05-25T05:27:40.264Z,12.17
2018-05-25T05:30:09.080Z,12.87
2018-05-25T05:32:37.958Z,11.50
2018-05-25T05:35:07.536Z,12.00
2018-05-25T05:37:36.400Z,14.13
2018-05-25T05:40:05.234Z,13.20
2018-05-25T05:42:34.132Z,15.77
2018-05-25T05:45:02.931Z,15.43
2018-05-25T05:47:31.727Z,13.30
2018-05-25T05:50:06.348Z,15.33
2018-05-25T05:52:35.233Z,14.13
2018-05-25T05:55:04.075Z,16.63
2018-05-25T05:57:32.868Z,13.80
2018-05-25T06:00:02.456Z,13.60
2018-05-25T06:02:31.365Z,18.13
2018-05-25T06:05:00.223Z,12.63
2018-05-25T06:07:29.788Z,13.30
2018-05-25T06:09:58.710Z,11.00
2018-05-25T06:12:29.691Z,13.53
2018-05-25T06:14:58.504Z,12.87
2018-05-25T06:17:28.110Z,11.80
2018-05-25T06:19:56.919Z,12.57
2018-05-25T06:22:25.743Z,13.43
2018-05-25T06:24:55.475Z,13.33
2018-05-25T06:27:25.304Z,14.27
2018-05-25T06:29:54.907Z,12.50
2018-05-25T06:32:24.491Z,13.90
2018-05-25T06:34:53.856Z,11.47
2018-05-25T06:37:22.596Z,12.53
2018-05-25T06:39:51.386Z,9.37
2018-05-25T06:42:20.208Z,9.20
2018-05-25T06:44:49.009Z,10.40
2018-05-25T06:47:17.859Z,10.47
2018-05-25T06:49:47.422Z,11.60
2018-05-25T06:52:16.291Z,11.17
2018-05-25T06:54:45.349Z,10.80
2018-05-25T06:57:14.939Z,11.53
2018-05-25T06:59:43.757Z,9.93
2018-05-25T07:02:13.340Z,10.87
2018-05-25T07:04:42.153Z,10.50
2018-05-25T07:07:10.982Z,9.83
2018-05-25T07:09:40.568Z,8.80
2018-05-25T07:12:09.397Z,10.63
2018-05-25T07:14:38.234Z,8.77
2018-05-25T07:17:07.119Z,9.33
2018-05-25T07:19:36.636Z,7.80
2018-05-25T07:22:05.528Z,7.83
2018-05-25T07:24:34.347Z,9.73
2018-05-25T07:27:03.902Z,7.53
2018-05-25T07:29:33.447Z,9.90
2018-05-25T07:32:03.064Z,7.43
2018-05-25T07:34:32.645Z,11.00
2018-05-25T07:37:01.559Z,10.37
2018-05-25T07:39:31.144Z,7.30
2018-05-25T07:42:00.045Z,6.70
2018-05-25T07:44:29.637Z,6.47
2018-05-25T07:46:58.425Z,5.27
2018-05-25T07:49:27.271Z,5.10
2018-05-25T07:51:56.067Z,5.17
2018-05-25T07:54:25.742Z,8.67
2018-05-25T07:56:55.263Z,7.57
2018-05-25T07:59:24.063Z,6.03
2018-05-25T08:01:53.664Z,4.83
2018-05-25T08:04:22.483Z,4.90
2018-05-25T08:06:51.315Z,4.57
2018-05-25T08:09:20.194Z,4.03
2018-05-25T08:11:49.759Z,3.40
2018-05-25T08:14:19.345Z,3.27
2018-05-25T08:16:48.133Z,2.83
2018-05-25T08:19:17.022Z,2.50
2018-05-25T08:21:45.871Z,3.20
2018-05-25T08:24:14.719Z,4.40
2018-05-25T08:26:43.523Z,2.67
2018-05-25T08:29:13.095Z,3.00
2018-05-25T08:31:41.907Z,2.97
2018-05-25T08:34:10.717Z,3.30
2018-05-25T08:36:39.629Z,5.13
2018-05-25T08:39:09.212Z,4.73
2018-05-25T08:41:38.016Z,3.80
2018-05-25T08:44:07.594Z,2.60
2018-05-25T08:46:36.423Z,2.80
2018-05-25T08:49:05.223Z,2.70
2018-05-25T08:51:34.053Z,2.10
2018-05-25T08:54:02.870Z,2.23
2018-05-25T08:56:31.792Z,2.50
2018-05-25T08:59:01.494Z,2.40
2018-05-25T09:01:30.216Z,1.80
2018-05-25T09:03:59.016Z,3.03
2018-05-25T09:06:28.663Z,2.63
2018-05-25T09:08:57.518Z,2.50
2018-05-25T09:11:26.388Z,2.10
2018-05-25T09:13:55.958Z,2.07
2018-05-25T09:16:24.771Z,2.00
2018-05-25T09:18:54.380Z,1.60
2018-05-25T09:21:23.976Z,1.40
2018-05-25T09:23:53.571Z,1.30
2018-05-25T09:26:23.142Z,4.10
2018-05-25T09:28:52.062Z,9.23
2018-05-25T09:31:20.872Z,7.50
2018-05-25T09:33:49.692Z,11.77
2018-05-25T09:36:18.509Z,11.57
2018-05-25T09:38:47.321Z,7.47
2018-05-25T09:41:16.260Z,6.33
2018-05-25T09:43:45.078Z,6.13
2018-05-25T09:46:13.907Z,5.43
2018-05-25T09:48:43.490Z,4.03
2018-05-25T09:51:12.299Z,4.03
2018-05-25T09:53:41.564Z,4.27
2018-05-25T09:56:10.526Z,3.57
2018-05-25T09:58:39.301Z,5.40
2018-05-25T10:01:08.118Z,4.07
2018-05-25T10:03:36.903Z,3.77
2018-05-25T10:06:06.469Z,2.97
2018-05-25T10:08:35.409Z,3.37
2018-05-25T10:11:04.947Z,3.40
2018-05-25T10:13:34.016Z,3.90
2018-05-25T10:16:02.847Z,3.20
2018-05-25T10:18:31.643Z,2.50
2018-05-25T10:21:00.454Z,4.27
2018-05-25T10:23:29.814Z,5.20
2018-05-25T10:25:58.634Z,4.13
2018-05-25T10:28:27.456Z,6.73
2018-05-25T10:30:57.018Z,5.80
2018-05-25T10:33:25.802Z,8.40
2018-05-25T10:35:54.623Z,10.17
2018-05-25T10:38:23.509Z,7.73
2018-05-25T10:40:52.526Z,6.43
2018-05-25T10:43:21.314Z,6.03
2018-05-25T10:45:50.511Z,7.40
2018-05-25T10:48:19.301Z,6.93
2018-05-25T10:50:48.127Z,5.10
2018-05-25T10:53:17.847Z,5.77
2018-05-25T10:55:46.665Z,6.90
2018-05-25T10:58:15.471Z,5.03
2018-05-25T11:00:44.363Z,5.23
2018-05-25T11:03:14.603Z,6.27
2018-05-25T11:05:44.145Z,4.50
2018-05-25T11:08:13.013Z,4.57
2018-05-25T11:10:42.583Z,4.10
2018-05-25T11:13:11.401Z,4.50
2018-05-25T11:15:40.214Z,4.37
2018-05-25T11:18:09.773Z,6.20
2018-05-25T11:20:38.586Z,6.20
2018-05-25T11:23:08.193Z,8.00
2018-05-25T11:25:36.986Z,3.70
2018-05-25T11:28:05.905Z,3.57
2018-05-25T11:30:35.502Z,5.93
2018-05-25T11:33:04.369Z,5.77
2018-05-25T11:35:33.183Z,5.80
2018-05-25T11:38:02.007Z,8.03
2018-05-25T11:40:30.831Z,7.23
2018-05-25T11:42:59.666Z,10.30
2018-05-25T11:45:29.241Z,7.37
2018-05-25T11:47:58.057Z,9.83
2018-05-25T11:50:26.853Z,14.33
2018-05-25T11:52:55.667Z,8.53
2018-05-25T11:55:25.123Z,6.60
2018-05-25T11:57:54.745Z,8.90
2018-05-25T12:00:23.611Z,4.87
2018-05-25T12:02:53.210Z,5.00
2018-05-25T12:05:22.020Z,5.67
2018-05-25T12:07:51.631Z,6.10
2018-05-25T12:10:20.437Z,6.63
2018-05-25T12:12:49.353Z,11.40
2018-05-25T12:15:18.139Z,11.97
2018-05-25T12:17:46.963Z,10.13
2018-05-25T12:20:15.884Z,9.67
2018-05-25T12:22:45.439Z,8.37
2018-05-25T12:25:14.283Z,8.97
2018-05-25T12:27:43.065Z,20.63
2018-05-25T12:30:11.893Z,11.67
2018-05-25T12:32:40.676Z,10.60
2018-05-25T12:35:09.499Z,11.30
2018-05-25T12:37:38.335Z,9.03
2018-05-25T12:40:07.883Z,13.00
2018-05-25T12:42:36.731Z,11.50
2018-05-25T12:45:13.222Z,11.63
2018-05-25T12:47:42.832Z,11.03
2018-05-25T12:50:12.426Z,11.03
2018-05-25T12:52:41.346Z,12.80
2018-05-25T12:55:10.144Z,8.53
2018-05-25T12:57:38.932Z,9.30
2018-05-25T13:00:07.784Z,12.57
2018-05-25T13:02:37.344Z,8.73
2018-05-25T13:05:06.141Z,9.50
2018-05-25T13:07:34.954Z,6.83
2018-05-25T13:10:04.536Z,6.00
2018-05-25T13:12:33.354Z,4.80
2018-05-25T13:15:02.170Z,4.23
2018-05-25T13:17:31.742Z,3.13
2018-05-25T13:20:00.545Z,8.23
2018-05-25T13:22:30.086Z,8.47
2018-05-25T13:24:58.920Z,7.53
2018-05-25T13:27:28.498Z,8.67
2018-05-25T13:29:57.314Z,8.73
2018-05-25T13:32:26.884Z,10.77
2018-05-25T13:34:55.706Z,5.97
2018-05-25T13:37:24.493Z,7.93
2018-05-25T13:39:53.520Z,6.07
2018-05-25T13:42:23.089Z,5.10
2018-05-25T13:44:51.909Z,6.67
2018-05-25T13:47:22.204Z,5.63
2018-05-25T13:49:51.042Z,6.30
2018-05-25T13:52:31.831Z,6.60
2018-05-25T13:55:00.651Z,4.67
2018-05-25T13:57:29.513Z,5.27
2018-05-25T13:59:59.080Z,6.43
2018-05-25T14:02:27.898Z,5.13
2018-05-25T14:04:57.515Z,5.50
2018-05-25T14:07:27.074Z,5.77
2018-05-25T14:09:55.880Z,5.33
2018-05-25T14:12:24.679Z,5.03
2018-05-25T14:14:53.496Z,4.30
2018-05-25T14:17:23.083Z,3.97
2018-05-25T14:19:51.855Z,3.80
2018-05-25T14:22:20.795Z,3.83
2018-05-25T14:24:49.622Z,3.30
2018-05-25T14:27:19.230Z,5.50
2018-05-25T14:29:48.765Z,4.43
2018-05-25T14:32:17.598Z,9.80
2018-05-25T14:34:46.396Z,4.70
2018-05-25T14:37:15.246Z,5.60
2018-05-25T14:39:44.843Z,3.23
2018-05-25T14:42:14.151Z,3.20
2018-05-25T14:44:42.950Z,2.63
2018-05-25T14:47:11.804Z,2.73
2018-05-25T14:49:40.569Z,2.87
2018-05-25T14:52:11.022Z,2.30
2018-05-25T14:54:40.117Z,2.70
2018-05-25T14:57:08.930Z,2.10
2018-05-25T14:59:37.836Z,1.80
2018-05-25T15:02:07.420Z,1.77
2018-05-25T15:04:37.069Z,1.90
2018-05-25T15:07:06.656Z,1.93
2018-05-25T15:09:35.467Z,1.80
2018-05-25T15:12:05.047Z,1.83
2018-05-25T15:14:34.631Z,1.70
2018-05-25T15:17:03.419Z,2.33
2018-05-25T15:19:32.258Z,2.20
2018-05-25T15:22:01.065Z,1.50
2018-05-25T15:24:29.857Z,1.97
2018-05-25T15:26:58.765Z,1.50
2018-05-25T15:29:27.589Z,1.70
2018-05-25T15:31:57.209Z,1.73
2018-05-25T15:34:25.986Z,1.70
2018-05-25T15:36:55.669Z,1.60
2018-05-25T15:39:24.483Z,1.40
2018-05-25T15:41:53.305Z,1.33
2018-05-25T15:44:22.077Z,1.30
2018-05-25T15:46:50.899Z,1.20
2018-05-25T15:49:19.805Z,1.17
2018-05-25T15:51:48.613Z,1.40
2018-05-25T15:54:17.423Z,1.40
2018-05-25T15:56:46.263Z,1.30
2018-05-25T15:59:15.068Z,1.33
2018-05-25T16:01:43.854Z,1.50
2018-05-25T16:04:12.689Z,1.50
2018-05-25T16:06:41.489Z,1.20
2018-05-25T16:09:11.071Z,1.40
2018-05-25T16:11:39.857Z,1.47
2018-05-25T16:14:08.684Z,1.70
2018-05-25T16:16:38.252Z,1.53
2018-05-25T16:19:07.046Z,1.60
2018-05-25T16:21:35.862Z,1.33
2018-05-25T16:24:04.675Z,1.60
2018-05-25T16:26:33.464Z,1.93
2018-05-25T16:29:02.266Z,1.97
2018-05-25T16:31:31.092Z,1.80
2018-05-25T16:34:00.637Z,1.70
2018-05-25T16:36:29.447Z,1.80
2018-05-25T16:38:58.267Z,1.87
2018-05-25T16:41:27.864Z,1.50
2018-05-25T16:43:56.654Z,1.57
2018-05-25T16:46:26.412Z,1.30
2018-05-25T16:48:55.311Z,2.10
2018-05-25T16:51:24.110Z,1.87
2018-05-25T16:53:52.971Z,1.70
2018-05-25T16:56:21.759Z,2.10
2018-05-25T16:58:50.586Z,1.83
2018-05-25T17:01:19.374Z,1.60
2018-05-25T17:03:48.687Z,2.03
2018-05-25T17:06:17.518Z,1.90
2018-05-25T17:08:46.331Z,1.70
2018-05-25T17:11:15.133Z,1.50
2018-05-25T17:13:44.703Z,1.50
2018-05-25T17:16:13.531Z,1.20
2018-05-25T17:18:43.098Z,1.30
2018-05-25T17:21:11.890Z,1.90
2018-05-25T17:23:40.676Z,1.60
2018-05-25T17:26:09.521Z,1.60
2018-05-25T17:28:39.085Z,1.43
2018-05-25T17:31:07.929Z,1.33
2018-05-25T17:33:36.701Z,1.40
2018-05-25T17:36:05.595Z,1.77
2018-05-25T17:38:34.345Z,1.20
2018-05-25T17:41:03.179Z,1.20
2018-05-25T17:43:31.981Z,1.30
2018-05-25T17:46:00.798Z,1.30
2018-05-25T17:48:30.351Z,1.60
2018-05-25T17:50:59.149Z,1.80
2018-05-25T17:53:27.943Z,2.03
2018-05-25T17:55:56.819Z,1.70
2018-05-25T17:58:26.428Z,2.07
2018-05-25T18:00:55.988Z,2.20
2018-05-25T18:03:25.874Z,1.60
2018-05-25T18:05:54.777Z,2.43
2018-05-25T18:08:24.369Z,2.50
2018-05-25T18:10:53.154Z,2.70
2018-05-25T18:13:21.976Z,3.00
2018-05-25T18:15:50.791Z,2.67
2018-05-25T18:18:20.400Z,2.97
2018-05-25T18:20:49.217Z,2.50
2018-05-25T18:23:18.768Z,3.00
2018-05-25T18:25:48.346Z,2.67
2018-05-25T18:28:17.452Z,2.70
2018-05-25T18:30:46.273Z,3.23
2018-05-25T18:33:15.872Z,3.20
2018-05-25T18:35:44.806Z,3.77
2018-05-25T18:38:13.579Z,4.00
2018-05-25T18:40:42.408Z,3.57
2018-05-25T18:43:11.212Z,3.87
2018-05-25T18:45:40.138Z,4.27
2018-05-25T18:48:09.697Z,3.73
2018-05-25T18:50:38.517Z,4.30
2018-05-25T18:53:08.146Z,4.23
2018-05-25T18:55:36.940Z,4.03
2018-05-25T18:58:05.858Z,3.93
2018-05-25T19:00:35.473Z,3.67
2018-05-25T19:03:04.367Z,3.90
2018-05-25T19:05:33.217Z,3.90
2018-05-25T19:08:02.781Z,3.73
2018-05-25T19:10:31.597Z,4.17
2018-05-25T19:13:00.393Z,4.40
2018-05-25T19:15:29.293Z,5.23
2018-05-25T19:17:58.085Z,5.17
2018-05-25T19:20:26.911Z,5.33
2018-05-25T19:22:55.717Z,5.63
2018-05-25T19:25:25.282Z,5.00
2018-05-25T19:27:54.107Z,5.20
2018-05-25T19:30:23.702Z,5.10
2018-05-25T19:32:52.492Z,4.90
2018-05-25T19:35:21.294Z,4.73
2018-05-25T19:37:50.895Z,6.03
2018-05-25T19:40:19.715Z,5.77
2018-05-25T19:42:49.305Z,6.43
2018-05-25T19:45:18.235Z,5.97
2018-05-25T19:47:47.734Z,5.80
2018-05-25T19:50:17.185Z,6.60
2018-05-25T19:52:46.784Z,6.73
2018-05-25T19:55:15.613Z,6.80
2018-05-25T19:57:44.483Z,6.87
2018-05-25T20:00:14.155Z,6.50
2018-05-25T20:02:42.972Z,6.27
2018-05-25T20:05:11.814Z,6.37
2018-05-25T20:07:40.610Z,6.23
2018-05-25T20:10:09.434Z,7.07
2018-05-25T20:12:38.271Z,6.93
2018-05-25T20:15:07.124Z,7.40
2018-05-25T20:17:35.925Z,6.30
2018-05-25T20:20:06.283Z,6.47
2018-05-25T20:22:35.118Z,6.00
2018-05-25T20:25:04.036Z,6.10
2018-05-25T20:27:32.873Z,6.93
2018-05-25T20:30:02.663Z,7.10
2018-05-25T20:32:31.450Z,8.27
2018-05-25T20:35:00.269Z,7.70
2018-05-25T20:37:29.850Z,6.87
2018-05-25T20:39:58.665Z,7.10
2018-05-25T20:42:28.274Z,7.33
2018-05-25T20:44:57.185Z,6.13
2018-05-25T20:47:26.071Z,7.60
2018-05-25T20:49:54.953Z,6.87
2018-05-25T20:52:23.750Z,7.70
2018-05-25T20:54:52.564Z,7.83
2018-05-25T20:57:22.187Z,7.83
2018-05-25T20:59:51.004Z,7.83
2018-05-25T21:02:19.867Z,7.60
2018-05-25T21:04:48.711Z,7.33
2018-05-25T21:07:18.387Z,7.17
2018-05-25T21:09:47.173Z,8.27
2018-05-25T21:12:16.151Z,6.27
2018-05-25T21:14:45.040Z,7.13
2018-05-25T21:17:13.914Z,7.83
2018-05-25T21:19:42.781Z,8.17
2018-05-25T21:22:11.611Z,7.23
2018-05-25T21:24:40.422Z,7.50
2018-05-25T21:27:09.983Z,7.57
2018-05-25T21:29:39.747Z,8.10
2018-05-25T21:32:08.537Z,7.70
2018-05-25T21:34:37.340Z,8.53
2018-05-25T21:37:06.173Z,9.20
2018-05-25T21:39:34.983Z,8.93
2018-05-25T21:42:03.813Z,8.10
2018-05-25T21:44:32.597Z,7.67
2018-05-25T21:47:01.449Z,7.43
2018-05-25T21:49:30.274Z,8.93
2018-05-25T21:51:59.092Z,7.87
2018-05-25T21:54:27.886Z,8.03
2018-05-25T21:56:56.692Z,9.13
2018-05-25T21:59:26.254Z,9.57
2018-05-25T22:01:55.115Z,9.33
2018-05-25T22:04:23.928Z,8.77
2018-05-25T22:06:52.746Z,8.20
2018-05-25T22:09:21.534Z,8.97
2018-05-25T22:11:50.435Z,8.63
2018-05-25T22:14:19.239Z,8.77
2018-05-25T22:16:48.101Z,10.30
2018-05-25T22:19:17.621Z,9.63
2018-05-25T22:21:46.457Z,9.60
2018-05-25T22:24:15.255Z,9.40
2018-05-25T22:26:44.836Z,10.33
2018-05-25T22:29:13.758Z,8.93
2018-05-25T22:31:43.337Z,9.27
2018-05-25T22:34:12.154Z,8.50
2018-05-25T22:36:41.716Z,9.97
2018-05-25T22:39:10.552Z,8.10
2018-05-25T22:41:39.346Z,9.77
2018-05-25T22:44:26.827Z,9.17
2018-05-25T22:47:13.363Z,10.00
2018-05-25T22:50:00.740Z,8.93
2018-05-25T22:52:34.468Z,8.87
2018-05-25T22:55:03.277Z,10.13
2018-05-25T22:57:32.863Z,8.50
2018-05-25T23:00:02.468Z,8.90
2018-05-25T23:02:31.345Z,10.73
2018-05-25T23:05:00.941Z,8.10
2018-05-25T23:07:29.729Z,8.80
2018-05-25T23:09:58.551Z,9.00
2018-05-25T23:12:27.362Z,9.87
2018-05-25T23:14:56.153Z,8.93
2018-05-25T23:17:25.796Z,8.87
2018-05-25T23:19:54.635Z,9.77
2018-05-25T23:22:23.443Z,9.27
2018-05-25T23:24:52.219Z,8.97
2018-05-25T23:27:22.142Z,10.27
2018-05-25T23:29:50.958Z,10.37
2018-05-25T23:32:19.772Z,9.70
2018-05-25T23:34:48.685Z,9.13
2018-05-25T23:37:17.507Z,9.30
2018-05-25T23:39:46.315Z,10.53
2018-05-25T23:42:15.167Z,9.23
2018-05-25T23:44:43.979Z,12.17
2018-05-25T23:47:12.783Z,10.83
2018-05-25T23:49:41.598Z,10.03
2018-05-25T23:52:10.405Z,9.13
2018-05-25T23:54:40.010Z,11.53
2018-05-25T23:57:08.796Z,9.70
2018-05-25T23:59:37.627Z,9.93
